sensor_id;sensor_type;location;lat;lon;timestamp;P1;durP1;ratioP1;P2;durP2;ratioP2
23658;SDS011;12006;42.666;23.326;2024-02-14T00:01:51;4.47;;;3.77;;
23658;SDS011;12006;42.666;23.326;2024-02-14T00:04:16;4.10;;;3.60;;
23658;SDS011;12006;42.666;23.326;2024-02-14T00:06:41;6.87;;;4.23;;
23658;SDS011;12006;42.666;23.326;2024-02-14T00:09:08;5.90;;;4.07;;
23658;SDS011;12006;42.666;23.326;2024-02-14T00:11:33;4.53;;;4.00;;
23658;SDS011;12006;42.666;23.326;2024-02-14T00:13:58;4.63;;;3.70;;
23658;SDS011;12006;42.666;23.326;2024-02-14T00:16:25;5.13;;;3.63;;
23658;SDS011;12006;42.666;23.326;2024-02-14T00:18:50;4.67;;;4.17;;
23658;SDS011;12006;42.666;23.326;2024-02-14T00:21:16;4.70;;;3.33;;
23658;SDS011;12006;42.666;23.326;2024-02-14T00:23:41;5.37;;;3.90;;
23658;SDS011;12006;42.666;23.326;2024-02-14T00:26:06;5.53;;;4.03;;
23658;SDS011;12006;42.666;23.326;2024-02-14T00:28:31;5.33;;;4.27;;
23658;SDS011;12006;42.666;23.326;2024-02-14T00:30:56;5.13;;;4.37;;
23658;SDS011;12006;42.666;23.326;2024-02-14T00:33:22;6.63;;;5.10;;
23658;SDS011;12006;42.666;23.326;2024-02-14T00:35:47;5.10;;;4.07;;
23658;SDS011;12006;42.666;23.326;2024-02-14T00:38:12;6.50;;;4.17;;
23658;SDS011;12006;42.666;23.326;2024-02-14T00:40:37;6.23;;;4.67;;
23658;SDS011;12006;42.666;23.326;2024-02-14T00:43:03;5.00;;;3.80;;
23658;SDS011;12006;42.666;23.326;2024-02-14T00:45:28;5.83;;;4.27;;
23658;SDS011;12006;42.666;23.326;2024-02-14T00:47:53;4.73;;;4.07;;
23658;SDS011;12006;42.666;23.326;2024-02-14T00:50:18;6.80;;;4.47;;
23658;SDS011;12006;42.666;23.326;2024-02-14T00:52:44;4.47;;;3.50;;
23658;SDS011;12006;42.666;23.326;2024-02-14T00:55:09;7.90;;;4.60;;
23658;SDS011;12006;42.666;23.326;2024-02-14T00:57:34;5.43;;;4.33;;
23658;SDS011;12006;42.666;23.326;2024-02-14T00:59:59;6.23;;;4.50;;
23658;SDS011;12006;42.666;23.326;2024-02-14T01:02:25;5.83;;;3.97;;
23658;SDS011;12006;42.666;23.326;2024-02-14T01:04:51;6.77;;;4.77;;
23658;SDS011;12006;42.666;23.326;2024-02-14T01:07:16;7.23;;;5.10;;
23658;SDS011;12006;42.666;23.326;2024-02-14T01:09:41;5.77;;;4.67;;
23658;SDS011;12006;42.666;23.326;2024-02-14T01:12:07;5.63;;;4.50;;
23658;SDS011;12006;42.666;23.326;2024-02-14T01:14:32;5.83;;;4.40;;
23658;SDS011;12006;42.666;23.326;2024-02-14T01:16:57;4.63;;;3.97;;
23658;SDS011;12006;42.666;23.326;2024-02-14T01:19:23;6.07;;;5.43;;
23658;SDS011;12006;42.666;23.326;2024-02-14T01:21:50;5.23;;;4.43;;
23658;SDS011;12006;42.666;23.326;2024-02-14T01:24:15;5.13;;;4.40;;
23658;SDS011;12006;42.666;23.326;2024-02-14T01:26:41;6.27;;;5.10;;
23658;SDS011;12006;42.666;23.326;2024-02-14T01:29:06;4.73;;;3.53;;
23658;SDS011;12006;42.666;23.326;2024-02-14T01:31:32;7.77;;;5.23;;
23658;SDS011;12006;42.666;23.326;2024-02-14T01:33:58;6.00;;;4.20;;
23658;SDS011;12006;42.666;23.326;2024-02-14T01:36:26;5.57;;;4.80;;
23658;SDS011;12006;42.666;23.326;2024-02-14T01:38:51;6.63;;;4.13;;
23658;SDS011;12006;42.666;23.326;2024-02-14T01:41:17;6.50;;;4.37;;
23658;SDS011;12006;42.666;23.326;2024-02-14T01:43:42;6.33;;;5.03;;
23658;SDS011;12006;42.666;23.326;2024-02-14T01:46:09;7.83;;;4.73;;
23658;SDS011;12006;42.666;23.326;2024-02-14T01:48:34;5.77;;;3.97;;
23658;SDS011;12006;42.666;23.326;2024-02-14T01:51:00;5.47;;;4.33;;
23658;SDS011;12006;42.666;23.326;2024-02-14T01:53:25;5.43;;;4.40;;
23658;SDS011;12006;42.666;23.326;2024-02-14T01:55:51;5.23;;;4.70;;
23658;SDS011;12006;42.666;23.326;2024-02-14T01:58:17;7.07;;;4.93;;
23658;SDS011;12006;42.666;23.326;2024-02-14T02:00:43;7.77;;;4.67;;
23658;SDS011;12006;42.666;23.326;2024-02-14T02:03:08;5.63;;;3.93;;
23658;SDS011;12006;42.666;23.326;2024-02-14T02:05:33;6.83;;;4.60;;
23658;SDS011;12006;42.666;23.326;2024-02-14T02:07:59;6.30;;;4.67;;
23658;SDS011;12006;42.666;23.326;2024-02-14T02:10:24;6.60;;;4.77;;
23658;SDS011;12006;42.666;23.326;2024-02-14T02:12:50;6.63;;;4.87;;
23658;SDS011;12006;42.666;23.326;2024-02-14T02:15:16;5.53;;;4.73;;
23658;SDS011;12006;42.666;23.326;2024-02-14T02:17:41;6.67;;;4.63;;
23658;SDS011;12006;42.666;23.326;2024-02-14T02:20:07;6.27;;;4.97;;
23658;SDS011;12006;42.666;23.326;2024-02-14T02:22:34;6.43;;;4.53;;
23658;SDS011;12006;42.666;23.326;2024-02-14T02:25:00;4.93;;;4.17;;
23658;SDS011;12006;42.666;23.326;2024-02-14T02:27:25;6.40;;;5.10;;
23658;SDS011;12006;42.666;23.326;2024-02-14T02:29:51;8.23;;;5.43;;
23658;SDS011;12006;42.666;23.326;2024-02-14T02:32:16;5.60;;;4.00;;
23658;SDS011;12006;42.666;23.326;2024-02-14T02:34:43;3.73;;;3.23;;
23658;SDS011;12006;42.666;23.326;2024-02-14T02:37:10;4.57;;;3.60;;
23658;SDS011;12006;42.666;23.326;2024-02-14T02:39:35;4.93;;;4.40;;
23658;SDS011;12006;42.666;23.326;2024-02-14T02:42:02;4.90;;;4.40;;
23658;SDS011;12006;42.666;23.326;2024-02-14T02:44:27;6.37;;;4.83;;
23658;SDS011;12006;42.666;23.326;2024-02-14T02:46:52;5.50;;;4.33;;
23658;SDS011;12006;42.666;23.326;2024-02-14T02:49:17;6.60;;;5.10;;
23658;SDS011;12006;42.666;23.326;2024-02-14T02:51:43;4.87;;;3.50;;
23658;SDS011;12006;42.666;23.326;2024-02-14T02:54:08;6.83;;;4.97;;
23658;SDS011;12006;42.666;23.326;2024-02-14T02:56:33;4.97;;;4.47;;
23658;SDS011;12006;42.666;23.326;2024-02-14T02:58:59;7.40;;;5.33;;
23658;SDS011;12006;42.666;23.326;2024-02-14T03:01:24;9.27;;;5.67;;
23658;SDS011;12006;42.666;23.326;2024-02-14T03:03:50;5.83;;;4.57;;
23658;SDS011;12006;42.666;23.326;2024-02-14T03:06:15;7.57;;;5.70;;
23658;SDS011;12006;42.666;23.326;2024-02-14T03:08:40;6.80;;;5.07;;
23658;SDS011;12006;42.666;23.326;2024-02-14T03:11:05;6.87;;;5.50;;
23658;SDS011;12006;42.666;23.326;2024-02-14T03:13:31;7.50;;;5.37;;
23658;SDS011;12006;42.666;23.326;2024-02-14T03:15:56;4.87;;;4.27;;
23658;SDS011;12006;42.666;23.326;2024-02-14T03:18:23;5.30;;;4.30;;
23658;SDS011;12006;42.666;23.326;2024-02-14T03:20:48;6.40;;;4.33;;
23658;SDS011;12006;42.666;23.326;2024-02-14T03:23:15;7.00;;;4.67;;
23658;SDS011;12006;42.666;23.326;2024-02-14T03:25:40;5.83;;;4.77;;
23658;SDS011;12006;42.666;23.326;2024-02-14T03:28:05;6.03;;;4.63;;
23658;SDS011;12006;42.666;23.326;2024-02-14T03:30:33;5.63;;;4.93;;
23658;SDS011;12006;42.666;23.326;2024-02-14T03:32:59;7.13;;;5.43;;
23658;SDS011;12006;42.666;23.326;2024-02-14T03:35:24;6.80;;;4.97;;
23658;SDS011;12006;42.666;23.326;2024-02-14T03:37:51;7.83;;;5.53;;
23658;SDS011;12006;42.666;23.326;2024-02-14T03:40:18;6.90;;;5.03;;
23658;SDS011;12006;42.666;23.326;2024-02-14T03:42:45;8.60;;;5.53;;
23658;SDS011;12006;42.666;23.326;2024-02-14T03:45:10;5.30;;;4.63;;
23658;SDS011;12006;42.666;23.326;2024-02-14T03:47:36;6.10;;;5.00;;
23658;SDS011;12006;42.666;23.326;2024-02-14T03:50:04;5.80;;;5.17;;
23658;SDS011;12006;42.666;23.326;2024-02-14T03:52:30;4.20;;;3.33;;
23658;SDS011;12006;42.666;23.326;2024-02-14T03:54:57;5.93;;;4.37;;
23658;SDS011;12006;42.666;23.326;2024-02-14T03:57:23;8.40;;;5.60;;
23658;SDS011;12006;42.666;23.326;2024-02-14T03:59:50;6.70;;;5.10;;
23658;SDS011;12006;42.666;23.326;2024-02-14T04:02:15;4.83;;;3.97;;
23658;SDS011;12006;42.666;23.326;2024-02-14T04:04:41;5.63;;;4.70;;
23658;SDS011;12006;42.666;23.326;2024-02-14T04:07:06;4.97;;;3.93;;
23658;SDS011;12006;42.666;23.326;2024-02-14T04:09:33;6.43;;;4.50;;
23658;SDS011;12006;42.666;23.326;2024-02-14T04:11:58;6.73;;;5.20;;
23658;SDS011;12006;42.666;23.326;2024-02-14T04:14:24;5.97;;;5.30;;
23658;SDS011;12006;42.666;23.326;2024-02-14T04:16:49;7.37;;;5.97;;
23658;SDS011;12006;42.666;23.326;2024-02-14T04:19:14;8.27;;;5.27;;
23658;SDS011;12006;42.666;23.326;2024-02-14T04:21:42;10.43;;;5.57;;
23658;SDS011;12006;42.666;23.326;2024-02-14T04:24:07;6.53;;;4.67;;
23658;SDS011;12006;42.666;23.326;2024-02-14T04:26:33;6.83;;;5.07;;
23658;SDS011;12006;42.666;23.326;2024-02-14T04:28:59;5.67;;;4.47;;
23658;SDS011;12006;42.666;23.326;2024-02-14T04:31:24;6.90;;;4.90;;
23658;SDS011;12006;42.666;23.326;2024-02-14T04:33:49;8.57;;;5.30;;
23658;SDS011;12006;42.666;23.326;2024-02-14T04:36:20;9.17;;;5.70;;
23658;SDS011;12006;42.666;23.326;2024-02-14T04:38:46;7.77;;;5.87;;
23658;SDS011;12006;42.666;23.326;2024-02-14T04:41:11;6.27;;;5.50;;
23658;SDS011;12006;42.666;23.326;2024-02-14T04:43:36;7.27;;;5.87;;
23658;SDS011;12006;42.666;23.326;2024-02-14T04:46:02;7.00;;;5.37;;
23658;SDS011;12006;42.666;23.326;2024-02-14T04:48:27;8.63;;;6.20;;
23658;SDS011;12006;42.666;23.326;2024-02-14T04:50:53;8.70;;;6.63;;
23658;SDS011;12006;42.666;23.326;2024-02-14T04:53:18;7.73;;;6.13;;
23658;SDS011;12006;42.666;23.326;2024-02-14T04:55:44;8.13;;;6.03;;
23658;SDS011;12006;42.666;23.326;2024-02-14T04:58:10;9.27;;;6.50;;
23658;SDS011;12006;42.666;23.326;2024-02-14T05:00:35;7.67;;;5.10;;
23658;SDS011;12006;42.666;23.326;2024-02-14T05:03:00;8.93;;;6.70;;
23658;SDS011;12006;42.666;23.326;2024-02-14T05:05:26;7.93;;;5.80;;
23658;SDS011;12006;42.666;23.326;2024-02-14T05:07:51;7.97;;;5.53;;
23658;SDS011;12006;42.666;23.326;2024-02-14T05:10:16;9.27;;;6.80;;
23658;SDS011;12006;42.666;23.326;2024-02-14T05:12:42;11.00;;;6.20;;
23658;SDS011;12006;42.666;23.326;2024-02-14T05:15:08;7.87;;;6.77;;
23658;SDS011;12006;42.666;23.326;2024-02-14T05:17:34;9.97;;;8.17;;
23658;SDS011;12006;42.666;23.326;2024-02-14T05:20:00;8.10;;;6.57;;
23658;SDS011;12006;42.666;23.326;2024-02-14T05:22:25;9.93;;;7.13;;
23658;SDS011;12006;42.666;23.326;2024-02-14T05:24:50;11.70;;;8.30;;
23658;SDS011;12006;42.666;23.326;2024-02-14T05:27:16;10.30;;;7.17;;
23658;SDS011;12006;42.666;23.326;2024-02-14T05:29:41;10.17;;;7.33;;
23658;SDS011;12006;42.666;23.326;2024-02-14T05:32:06;10.10;;;6.83;;
23658;SDS011;12006;42.666;23.326;2024-02-14T05:34:34;11.00;;;8.07;;
23658;SDS011;12006;42.666;23.326;2024-02-14T05:36:59;6.23;;;5.43;;
23658;SDS011;12006;42.666;23.326;2024-02-14T05:39:24;10.23;;;7.20;;
23658;SDS011;12006;42.666;23.326;2024-02-14T05:41:49;8.13;;;6.63;;
23658;SDS011;12006;42.666;23.326;2024-02-14T05:44:15;7.03;;;5.73;;
23658;SDS011;12006;42.666;23.326;2024-02-14T05:46:40;9.43;;;7.40;;
23658;SDS011;12006;42.666;23.326;2024-02-14T05:49:06;9.30;;;6.90;;
23658;SDS011;12006;42.666;23.326;2024-02-14T05:51:31;9.67;;;7.03;;
23658;SDS011;12006;42.666;23.326;2024-02-14T05:53:56;10.67;;;6.07;;
23658;SDS011;12006;42.666;23.326;2024-02-14T05:56:22;11.20;;;7.67;;
23658;SDS011;12006;42.666;23.326;2024-02-14T05:58:47;8.70;;;7.17;;
23658;SDS011;12006;42.666;23.326;2024-02-14T06:01:12;7.10;;;5.53;;
23658;SDS011;12006;42.666;23.326;2024-02-14T06:03:37;10.50;;;7.70;;
23658;SDS011;12006;42.666;23.326;2024-02-14T06:06:03;8.70;;;6.87;;
23658;SDS011;12006;42.666;23.326;2024-02-14T06:08:28;8.70;;;7.13;;
23658;SDS011;12006;42.666;23.326;2024-02-14T06:10:53;9.47;;;7.57;;
23658;SDS011;12006;42.666;23.326;2024-02-14T06:13:18;8.50;;;6.33;;
23658;SDS011;12006;42.666;23.326;2024-02-14T06:15:44;8.57;;;6.50;;
23658;SDS011;12006;42.666;23.326;2024-02-14T06:18:09;8.23;;;6.40;;
23658;SDS011;12006;42.666;23.326;2024-02-14T06:20:34;8.67;;;5.63;;
23658;SDS011;12006;42.666;23.326;2024-02-14T06:23:00;8.43;;;6.47;;
23658;SDS011;12006;42.666;23.326;2024-02-14T06:25:25;10.57;;;6.77;;
23658;SDS011;12006;42.666;23.326;2024-02-14T06:27:50;9.93;;;6.40;;
23658;SDS011;12006;42.666;23.326;2024-02-14T06:30:16;9.03;;;6.77;;
23658;SDS011;12006;42.666;23.326;2024-02-14T06:32:42;6.97;;;5.43;;
23658;SDS011;12006;42.666;23.326;2024-02-14T06:35:07;9.20;;;6.90;;
23658;SDS011;12006;42.666;23.326;2024-02-14T06:37:32;7.47;;;5.93;;
23658;SDS011;12006;42.666;23.326;2024-02-14T06:39:58;9.90;;;6.23;;
23658;SDS011;12006;42.666;23.326;2024-02-14T06:42:23;6.67;;;5.43;;
23658;SDS011;12006;42.666;23.326;2024-02-14T06:44:48;5.43;;;4.63;;
23658;SDS011;12006;42.666;23.326;2024-02-14T06:47:14;6.13;;;5.07;;
23658;SDS011;12006;42.666;23.326;2024-02-14T06:49:39;9.07;;;6.23;;
23658;SDS011;12006;42.666;23.326;2024-02-14T06:52:05;6.97;;;5.63;;
23658;SDS011;12006;42.666;23.326;2024-02-14T06:54:30;8.50;;;6.63;;
23658;SDS011;12006;42.666;23.326;2024-02-14T06:56:55;7.70;;;6.10;;
23658;SDS011;12006;42.666;23.326;2024-02-14T06:59:21;7.90;;;5.87;;
23658;SDS011;12006;42.666;23.326;2024-02-14T07:01:46;11.07;;;7.20;;
23658;SDS011;12006;42.666;23.326;2024-02-14T07:04:11;5.70;;;4.80;;
23658;SDS011;12006;42.666;23.326;2024-02-14T07:06:36;7.47;;;5.17;;
23658;SDS011;12006;42.666;23.326;2024-02-14T07:09:02;8.27;;;5.87;;
23658;SDS011;12006;42.666;23.326;2024-02-14T07:11:27;6.57;;;5.60;;
23658;SDS011;12006;42.666;23.326;2024-02-14T07:13:52;8.37;;;5.77;;
23658;SDS011;12006;42.666;23.326;2024-02-14T07:16:17;6.90;;;4.83;;
23658;SDS011;12006;42.666;23.326;2024-02-14T07:18:43;5.97;;;5.07;;
23658;SDS011;12006;42.666;23.326;2024-02-14T07:21:08;4.50;;;3.80;;
23658;SDS011;12006;42.666;23.326;2024-02-14T07:23:33;8.07;;;6.00;;
23658;SDS011;12006;42.666;23.326;2024-02-14T07:25:59;4.87;;;4.13;;
23658;SDS011;12006;42.666;23.326;2024-02-14T07:28:25;6.80;;;5.60;;
23658;SDS011;12006;42.666;23.326;2024-02-14T07:30:51;5.83;;;4.77;;
23658;SDS011;12006;42.666;23.326;2024-02-14T07:33:16;6.20;;;4.77;;
23658;SDS011;12006;42.666;23.326;2024-02-14T07:35:41;7.70;;;4.30;;
23658;SDS011;12006;42.666;23.326;2024-02-14T07:38:07;6.97;;;5.23;;
23658;SDS011;12006;42.666;23.326;2024-02-14T07:40:33;5.13;;;4.60;;
23658;SDS011;12006;42.666;23.326;2024-02-14T07:42:58;6.97;;;5.37;;
23658;SDS011;12006;42.666;23.326;2024-02-14T07:45:24;5.83;;;5.27;;
23658;SDS011;12006;42.666;23.326;2024-02-14T07:47:49;9.80;;;4.97;;
23658;SDS011;12006;42.666;23.326;2024-02-14T07:50:14;5.57;;;4.80;;
23658;SDS011;12006;42.666;23.326;2024-02-14T07:52:43;7.17;;;5.27;;
23658;SDS011;12006;42.666;23.326;2024-02-14T07:55:11;5.77;;;3.77;;
23658;SDS011;12006;42.666;23.326;2024-02-14T07:57:39;6.27;;;5.27;;
23658;SDS011;12006;42.666;23.326;2024-02-14T08:00:05;8.60;;;5.77;;
23658;SDS011;12006;42.666;23.326;2024-02-14T08:02:33;4.93;;;4.23;;
23658;SDS011;12006;42.666;23.326;2024-02-14T08:04:58;6.40;;;5.80;;
23658;SDS011;12006;42.666;23.326;2024-02-14T08:07:23;5.33;;;4.53;;
23658;SDS011;12006;42.666;23.326;2024-02-14T08:09:49;5.27;;;4.10;;
23658;SDS011;12006;42.666;23.326;2024-02-14T08:12:14;5.57;;;4.87;;
23658;SDS011;12006;42.666;23.326;2024-02-14T08:14:39;5.73;;;5.13;;
23658;SDS011;12006;42.666;23.326;2024-02-14T08:17:04;6.57;;;4.77;;
23658;SDS011;12006;42.666;23.326;2024-02-14T08:19:29;4.93;;;4.17;;
23658;SDS011;12006;42.666;23.326;2024-02-14T08:21:55;6.57;;;4.77;;
23658;SDS011;12006;42.666;23.326;2024-02-14T08:24:24;7.63;;;5.10;;
23658;SDS011;12006;42.666;23.326;2024-02-14T08:26:49;5.57;;;4.43;;
23658;SDS011;12006;42.666;23.326;2024-02-14T08:29:15;6.40;;;5.37;;
23658;SDS011;12006;42.666;23.326;2024-02-14T08:31:40;7.20;;;5.27;;
23658;SDS011;12006;42.666;23.326;2024-02-14T08:34:05;6.53;;;4.93;;
23658;SDS011;12006;42.666;23.326;2024-02-14T08:36:31;5.00;;;4.33;;
23658;SDS011;12006;42.666;23.326;2024-02-14T08:38:56;4.47;;;3.77;;
23658;SDS011;12006;42.666;23.326;2024-02-14T08:41:22;7.77;;;5.07;;
23658;SDS011;12006;42.666;23.326;2024-02-14T08:43:48;6.30;;;4.73;;
23658;SDS011;12006;42.666;23.326;2024-02-14T08:46:13;6.53;;;5.70;;
23658;SDS011;12006;42.666;23.326;2024-02-14T08:48:39;5.67;;;4.33;;
23658;SDS011;12006;42.666;23.326;2024-02-14T08:51:11;5.20;;;4.47;;
23658;SDS011;12006;42.666;23.326;2024-02-14T08:53:37;4.60;;;4.03;;
23658;SDS011;12006;42.666;23.326;2024-02-14T08:56:02;7.67;;;5.40;;
23658;SDS011;12006;42.666;23.326;2024-02-14T08:58:28;6.43;;;5.37;;
23658;SDS011;12006;42.666;23.326;2024-02-14T09:00:53;8.57;;;5.40;;
23658;SDS011;12006;42.666;23.326;2024-02-14T09:03:19;6.27;;;3.33;;
23658;SDS011;12006;42.666;23.326;2024-02-14T09:05:44;6.40;;;4.70;;
23658;SDS011;12006;42.666;23.326;2024-02-14T09:08:11;5.87;;;5.07;;
23658;SDS011;12006;42.666;23.326;2024-02-14T09:10:36;5.73;;;4.23;;
23658;SDS011;12006;42.666;23.326;2024-02-14T09:13:01;4.60;;;3.43;;
23658;SDS011;12006;42.666;23.326;2024-02-14T09:15:27;3.87;;;3.43;;
23658;SDS011;12006;42.666;23.326;2024-02-14T09:17:52;6.57;;;4.67;;
23658;SDS011;12006;42.666;23.326;2024-02-14T09:20:17;5.20;;;4.30;;
23658;SDS011;12006;42.666;23.326;2024-02-14T09:22:44;5.23;;;4.20;;
23658;SDS011;12006;42.666;23.326;2024-02-14T09:25:09;5.37;;;4.60;;
23658;SDS011;12006;42.666;23.326;2024-02-14T09:27:34;6.07;;;4.70;;
23658;SDS011;12006;42.666;23.326;2024-02-14T09:30:00;4.13;;;3.70;;
23658;SDS011;12006;42.666;23.326;2024-02-14T09:32:25;5.20;;;4.13;;
23658;SDS011;12006;42.666;23.326;2024-02-14T09:34:51;7.90;;;5.07;;
23658;SDS011;12006;42.666;23.326;2024-02-14T09:37:16;5.97;;;4.90;;
23658;SDS011;12006;42.666;23.326;2024-02-14T09:39:41;5.67;;;5.00;;
23658;SDS011;12006;42.666;23.326;2024-02-14T09:42:09;8.13;;;5.50;;
23658;SDS011;12006;42.666;23.326;2024-02-14T09:44:35;7.13;;;5.10;;
23658;SDS011;12006;42.666;23.326;2024-02-14T09:47:01;5.13;;;4.13;;
23658;SDS011;12006;42.666;23.326;2024-02-14T09:49:29;6.30;;;4.70;;
23658;SDS011;12006;42.666;23.326;2024-02-14T09:51:55;6.40;;;4.90;;
23658;SDS011;12006;42.666;23.326;2024-02-14T09:54:20;5.33;;;4.27;;
23658;SDS011;12006;42.666;23.326;2024-02-14T09:56:52;5.73;;;5.17;;
23658;SDS011;12006;42.666;23.326;2024-02-14T09:59:21;3.60;;;3.03;;
23658;SDS011;12006;42.666;23.326;2024-02-14T10:01:47;6.20;;;3.80;;
23658;SDS011;12006;42.666;23.326;2024-02-14T10:04:14;6.93;;;4.73;;
23658;SDS011;12006;42.666;23.326;2024-02-14T10:06:39;6.30;;;4.57;;
23658;SDS011;12006;42.666;23.326;2024-02-14T10:09:05;5.47;;;4.50;;
23658;SDS011;12006;42.666;23.326;2024-02-14T10:11:33;4.87;;;4.10;;
23658;SDS011;12006;42.666;23.326;2024-02-14T10:14:00;4.47;;;3.73;;
23658;SDS011;12006;42.666;23.326;2024-02-14T10:16:28;7.07;;;5.33;;
23658;SDS011;12006;42.666;23.326;2024-02-14T10:18:53;4.27;;;3.80;;
23658;SDS011;12006;42.666;23.326;2024-02-14T10:21:19;6.37;;;4.17;;
23658;SDS011;12006;42.666;23.326;2024-02-14T10:23:44;4.70;;;3.93;;
23658;SDS011;12006;42.666;23.326;2024-02-14T10:26:11;4.87;;;3.70;;
23658;SDS011;12006;42.666;23.326;2024-02-14T10:28:40;6.30;;;4.17;;
23658;SDS011;12006;42.666;23.326;2024-02-14T10:31:05;5.27;;;4.40;;
23658;SDS011;12006;42.666;23.326;2024-02-14T10:33:30;4.57;;;3.07;;
23658;SDS011;12006;42.666;23.326;2024-02-14T10:35:56;6.63;;;4.97;;
23658;SDS011;12006;42.666;23.326;2024-02-14T10:38:22;5.70;;;4.00;;
23658;SDS011;12006;42.666;23.326;2024-02-14T10:40:47;4.33;;;3.93;;
23658;SDS011;12006;42.666;23.326;2024-02-14T10:43:13;3.67;;;3.20;;
23658;SDS011;12006;42.666;23.326;2024-02-14T10:45:39;6.67;;;4.30;;
23658;SDS011;12006;42.666;23.326;2024-02-14T10:48:05;5.20;;;4.10;;
23658;SDS011;12006;42.666;23.326;2024-02-14T10:50:33;5.47;;;3.80;;
23658;SDS011;12006;42.666;23.326;2024-02-14T10:53:03;4.60;;;3.80;;
23658;SDS011;12006;42.666;23.326;2024-02-14T10:55:29;8.27;;;4.47;;
23658;SDS011;12006;42.666;23.326;2024-02-14T10:57:55;7.80;;;5.00;;
23658;SDS011;12006;42.666;23.326;2024-02-14T11:00:20;5.97;;;4.50;;
23658;SDS011;12006;42.666;23.326;2024-02-14T11:02:46;7.33;;;5.20;;
23658;SDS011;12006;42.666;23.326;2024-02-14T11:05:12;5.50;;;4.13;;
23658;SDS011;12006;42.666;23.326;2024-02-14T11:07:44;4.43;;;3.70;;
23658;SDS011;12006;42.666;23.326;2024-02-14T11:10:09;4.20;;;3.43;;
23658;SDS011;12006;42.666;23.326;2024-02-14T11:12:38;4.03;;;3.63;;
23658;SDS011;12006;42.666;23.326;2024-02-14T11:15:09;8.40;;;4.70;;
23658;SDS011;12006;42.666;23.326;2024-02-14T11:17:36;5.40;;;4.13;;
23658;SDS011;12006;42.666;23.326;2024-02-14T11:20:11;4.93;;;4.43;;
23658;SDS011;12006;42.666;23.326;2024-02-14T11:22:36;5.30;;;3.90;;
23658;SDS011;12006;42.666;23.326;2024-02-14T11:25:05;4.77;;;3.23;;
23658;SDS011;12006;42.666;23.326;2024-02-14T11:27:31;4.87;;;3.90;;
23658;SDS011;12006;42.666;23.326;2024-02-14T11:29:57;3.80;;;3.43;;
23658;SDS011;12006;42.666;23.326;2024-02-14T11:32:24;7.13;;;4.00;;
23658;SDS011;12006;42.666;23.326;2024-02-14T11:34:55;6.37;;;4.60;;
23658;SDS011;12006;42.666;23.326;2024-02-14T11:37:26;7.20;;;4.37;;
23658;SDS011;12006;42.666;23.326;2024-02-14T11:39:52;6.57;;;3.93;;
23658;SDS011;12006;42.666;23.326;2024-02-14T11:42:17;6.23;;;4.20;;
23658;SDS011;12006;42.666;23.326;2024-02-14T11:44:43;5.87;;;4.27;;
23658;SDS011;12006;42.666;23.326;2024-02-14T11:47:10;6.43;;;4.70;;
23658;SDS011;12006;42.666;23.326;2024-02-14T11:49:36;5.97;;;4.57;;
23658;SDS011;12006;42.666;23.326;2024-02-14T11:52:04;5.93;;;4.87;;
23658;SDS011;12006;42.666;23.326;2024-02-14T11:54:29;5.47;;;4.50;;
23658;SDS011;12006;42.666;23.326;2024-02-14T11:56:54;5.83;;;4.67;;
23658;SDS011;12006;42.666;23.326;2024-02-14T11:59:20;6.27;;;4.47;;
23658;SDS011;12006;42.666;23.326;2024-02-14T12:01:48;5.43;;;4.40;;
23658;SDS011;12006;42.666;23.326;2024-02-14T12:04:13;7.33;;;5.20;;
23658;SDS011;12006;42.666;23.326;2024-02-14T12:06:39;4.53;;;3.50;;
23658;SDS011;12006;42.666;23.326;2024-02-14T12:09:06;5.63;;;4.37;;
23658;SDS011;12006;42.666;23.326;2024-02-14T12:11:34;6.83;;;3.73;;
23658;SDS011;12006;42.666;23.326;2024-02-14T12:14:02;6.53;;;3.70;;
23658;SDS011;12006;42.666;23.326;2024-02-14T12:16:28;5.37;;;4.03;;
23658;SDS011;12006;42.666;23.326;2024-02-14T12:21:48;5.00;;;4.50;;
23658;SDS011;12006;42.666;23.326;2024-02-14T12:24:14;5.77;;;3.93;;
23658;SDS011;12006;42.666;23.326;2024-02-14T12:26:40;5.43;;;4.20;;
23658;SDS011;12006;42.666;23.326;2024-02-14T12:29:05;4.53;;;3.60;;
23658;SDS011;12006;42.666;23.326;2024-02-14T12:31:34;4.63;;;3.83;;
23658;SDS011;12006;42.666;23.326;2024-02-14T12:33:59;5.27;;;3.67;;
23658;SDS011;12006;42.666;23.326;2024-02-14T12:36:27;7.10;;;4.30;;
23658;SDS011;12006;42.666;23.326;2024-02-14T12:38:53;6.17;;;4.00;;
23658;SDS011;12006;42.666;23.326;2024-02-14T12:41:19;5.37;;;4.27;;
23658;SDS011;12006;42.666;23.326;2024-02-14T12:43:44;9.83;;;4.83;;
23658;SDS011;12006;42.666;23.326;2024-02-14T12:46:09;4.97;;;4.17;;
23658;SDS011;12006;42.666;23.326;2024-02-14T12:48:35;5.17;;;4.50;;
23658;SDS011;12006;42.666;23.326;2024-02-14T12:51:00;5.50;;;4.47;;
23658;SDS011;12006;42.666;23.326;2024-02-14T12:53:25;4.10;;;3.70;;
23658;SDS011;12006;42.666;23.326;2024-02-14T12:55:51;5.20;;;4.67;;
23658;SDS011;12006;42.666;23.326;2024-02-14T12:58:17;6.13;;;4.60;;
23658;SDS011;12006;42.666;23.326;2024-02-14T13:00:42;6.23;;;5.07;;
23658;SDS011;12006;42.666;23.326;2024-02-14T13:03:08;7.77;;;5.13;;
23658;SDS011;12006;42.666;23.326;2024-02-14T13:05:35;6.03;;;4.93;;
23658;SDS011;12006;42.666;23.326;2024-02-14T13:08:01;6.30;;;4.60;;
23658;SDS011;12006;42.666;23.326;2024-02-14T13:10:26;4.67;;;4.07;;
23658;SDS011;12006;42.666;23.326;2024-02-14T13:12:51;6.27;;;4.40;;
23658;SDS011;12006;42.666;23.326;2024-02-14T13:15:17;4.90;;;3.93;;
23658;SDS011;12006;42.666;23.326;2024-02-14T13:17:42;6.27;;;3.70;;
23658;SDS011;12006;42.666;23.326;2024-02-14T13:20:07;5.20;;;3.97;;
23658;SDS011;12006;42.666;23.326;2024-02-14T13:22:33;3.97;;;3.37;;
23658;SDS011;12006;42.666;23.326;2024-02-14T13:24:58;5.50;;;4.07;;
23658;SDS011;12006;42.666;23.326;2024-02-14T13:27:25;5.50;;;4.00;;
23658;SDS011;12006;42.666;23.326;2024-02-14T13:29:51;6.30;;;4.10;;
23658;SDS011;12006;42.666;23.326;2024-02-14T13:32:16;5.83;;;4.37;;
23658;SDS011;12006;42.666;23.326;2024-02-14T13:34:41;4.43;;;3.87;;
23658;SDS011;12006;42.666;23.326;2024-02-14T13:37:08;5.27;;;4.33;;
23658;SDS011;12006;42.666;23.326;2024-02-14T13:39:34;5.57;;;4.53;;
23658;SDS011;12006;42.666;23.326;2024-02-14T13:41:59;8.60;;;5.07;;
23658;SDS011;12006;42.666;23.326;2024-02-14T13:44:26;5.53;;;4.23;;
23658;SDS011;12006;42.666;23.326;2024-02-14T13:46:51;6.53;;;4.57;;
23658;SDS011;12006;42.666;23.326;2024-02-14T13:49:18;6.67;;;4.13;;
23658;SDS011;12006;42.666;23.326;2024-02-14T13:51:52;5.03;;;4.40;;
23658;SDS011;12006;42.666;23.326;2024-02-14T13:54:18;4.93;;;3.97;;
23658;SDS011;12006;42.666;23.326;2024-02-14T13:56:43;4.60;;;3.90;;
23658;SDS011;12006;42.666;23.326;2024-02-14T13:59:08;5.27;;;3.73;;
23658;SDS011;12006;42.666;23.326;2024-02-14T14:01:34;5.00;;;4.43;;
23658;SDS011;12006;42.666;23.326;2024-02-14T14:03:59;5.67;;;3.90;;
23658;SDS011;12006;42.666;23.326;2024-02-14T14:06:24;4.57;;;3.63;;
23658;SDS011;12006;42.666;23.326;2024-02-14T14:08:50;5.53;;;4.43;;
23658;SDS011;12006;42.666;23.326;2024-02-14T14:11:15;4.00;;;3.60;;
23658;SDS011;12006;42.666;23.326;2024-02-14T14:13:40;6.87;;;3.87;;
23658;SDS011;12006;42.666;23.326;2024-02-14T14:16:05;5.63;;;4.40;;
23658;SDS011;12006;42.666;23.326;2024-02-14T14:18:31;5.97;;;4.17;;
23658;SDS011;12006;42.666;23.326;2024-02-14T14:20:56;5.83;;;3.93;;
23658;SDS011;12006;42.666;23.326;2024-02-14T14:23:22;5.03;;;4.07;;
23658;SDS011;12006;42.666;23.326;2024-02-14T14:25:47;5.80;;;3.73;;
23658;SDS011;12006;42.666;23.326;2024-02-14T14:28:12;5.57;;;4.00;;